METAR AND TAF INFORMATION
METAR FOR PACZ
ADDS - METARS form results

(1946 UTC 29 January 2020)
Data provider http://aviationweather.gov/metar/data/
 
METAR text: PACZ 291937Z AUTO 35046G51KT 220V080 1/2SM -SN FG BKN010 M20/M22 A2942
Conditions at: PACZ (CAPE ROMANZOF , AK, US) observed 1937 UTC 29 January 2020
Temperature: -20.0°C (-4°F)
Dewpoint: -22.0°C (-8°F) [RH = 84%]
Pressure (altimeter): 29.42 inches Hg (996.4 mb)
Winds: from the N (350 degrees) at 53 MPH (46 knots; 23.7 m/s)
gusting to 59 MPH (51 knots; 26.2 m/s)
Visibility: 0.50 miles (0.80 km)
Ceiling: 1000 feet AGL
Clouds: broken clouds at 1000 feet AGL
Weather: -SN FG  (light snow, fog)

METAR text: PACZ 291922Z AUTO 01043KT 340V050 1SM -SN BR BKN010 M21/M23 A2942 RMK AO2 PK WND 01048/1906 SLP985
Conditions at: PACZ (CAPE ROMANZOF , AK, US) observed 1922 UTC 29 January 2020
Temperature: -21.0°C (-6°F)
Dewpoint: -23.0°C (-9°F) [RH = 84%]
Pressure (altimeter): 29.42 inches Hg (996.4 mb)
[Sea-level pressure:  998.5 mb]
Winds: from the N (10 degrees) at 49 MPH (43 knots; 22.1 m/s)
Visibility: 1.00 miles (1.61 km)
Ceiling: 1000 feet AGL
Clouds: broken clouds at 1000 feet AGL
Weather: -SN BR  (light snow, mist)

METAR text: PACZ 291855Z AUTO 36042KT 3/4SM -SN BR BKN013 M21/M23 A2943 RMK AO2 PK WND 27048/1844 SHSNB1609E1802 SLP988 P0000 T12081229
Conditions at: PACZ (CAPE ROMANZOF , AK, US) observed 1855 UTC 29 January 2020
Temperature: -20.8°C (-5°F)
Dewpoint: -22.9°C (-9°F) [RH = 83%]
Pressure (altimeter): 29.43 inches Hg (996.7 mb)
[Sea-level pressure:  998.8 mb]
Winds: from the N (360 degrees) at 48 MPH (42 knots; 21.6 m/s)
Visibility: 0.75 miles (1.21 km)
Ceiling: 1300 feet AGL
Clouds: broken clouds at 1300 feet AGL
Weather: -SN BR  (light snow, mist)

METAR text: PACZ 291852Z AUTO 36044KT 190V090 3/4SM -SN BR BKN012 M21/M23 A2943 RMK AO2 PK WND 27048/1844 SLP987
Conditions at: PACZ (CAPE ROMANZOF , AK, US) observed 1852 UTC 29 January 2020
Temperature: -21.0°C (-6°F)
Dewpoint: -23.0°C (-9°F) [RH = 84%]
Pressure (altimeter): 29.43 inches Hg (996.7 mb)
[Sea-level pressure:  998.7 mb]
Winds: from the N (360 degrees) at 51 MPH (44 knots; 22.6 m/s)
Visibility: 0.75 miles (1.21 km)
Ceiling: 1200 feet AGL
Clouds: broken clouds at 1200 feet AGL
Weather: -SN BR  (light snow, mist)

 AIRPORT MAP

 RUNWAY INFORMATION
Runway 02 Runway length 3990 ft Runway width 135 ft
Runway elevation 367 ft Runway displaced threshold 0 ft Runway heading 37
Runway 20 Runway length 3990 ft Runway width 135 ft
Runway elevation 457 ft Runway displaced threshold 0 ft Runway heading 217

 AIRPORT FREQUENCIES
Type ARTC Name ANCHORAGE Frequency 124.5 MHZ
Type CNTR Name ANCHORAGE Frequency 132.5 MHZ
Type FSS Name KENAI RDO Frequency 122.1 MHZ
Type INFO Name INFO Frequency 126.2 MHZ

 AIRPORT NEAR NAVIGATION AIDS
Type NDB Name Cape Romanzof Frequency 275 KHZ
Type DME Name Cape Romanzof Frequency 116750 KHZ



We are a FlightSim virtual group and are in no way affiliated with RavnAir Group.

Powered by Virtual Airlines Manager [v2.6.2]